Milos Djuricic

Recruteur en chef - Vojvodina
20 Nov 2027
Samedi
Processus

Personnalité

Adaptabilité (20) Ambition (14) Controverse (1) Loyauté (12) Pression (19) Professionnalisme (14) Sportivité (11) Tempérament (5)

Profil

Style d'entraînement Démocratique
Diplôme Continental A
Détermination 11
Gestion des joueurs 10
Motivation 7
Discipline 12
Satisfaction professionnelle
79%
Fatigue
0%
Rôle Recruteur en chef
Salaire 28.4K p/s
Contrat 14.03.2030

Performance

Comportement Bon
Efficacité de l'entraînement
35%
Développement des joueurs
60%
Prévention des blessures
25%
Mise en place tactique
55%

Événements récents

A participé à une réunion de recrutement maintenant
A recommandé une cible de transfert maintenant
A participé à une réunion de recrutement maintenant
A participé à une réunion de recrutement 7j
A recommandé une cible de transfert 7j
A participé à une réunion de recrutement 7j
A recommandé une cible de transfert 7j
A recommandé une cible de transfert 7j

Suivi en cours

168
Joueur Club Statut Capacité Confiance Observé Dernière observation Dernier vote
Azizbek To'lqinbekov Bunyodkor Actif 96 / 95 40% 1 02.11.2027 -
Kauã Moraes Cruzeiro Actif 134 / 136 40% 1 02.11.2027 -
Sergio Castillo Cortulua Actif 115 / 105 40% 1 02.11.2027 -
Vanja Dragojević Partizan Actif 119 / 120 40% 1 06.10.2027 -
Godwin Oham Warri Wolves Actif 89 / 91 40% 1 06.10.2027 -
Emmanuel Akpan Bendel Insurance Actif 84 / 89 40% 1 06.10.2027 -
Agustín Medina Lanús Actif 116 / 121 40% 3 05.10.2027 -
Uche Jaguar Kwara United Actif 89 / 101 40% 2 05.10.2027 -
Sebastián Ramírez America de Cali Actif 117 / 114 40% 2 05.10.2027 -
Facundo Balatti Penarol Actif 114 / 108 40% 1 04.10.2027 -
Andrej Bačanin Grasshopper Actif 118 / 124 40% 1 04.10.2027 -
Elkín Morales Universitario Popayan Actif 83 / 76 40% 1 04.10.2027 -
Joel Ezra Enyimba Actif 91 / 101 40% 3 08.09.2027 -
Luis Otávio Toronto FC Actif 102 / 128 40% 2 08.09.2027 -
Matías Canedo Rampla Juniors Actif 89 / 84 40% 1 06.09.2027 -
Gift Isioma Warri Wolves Actif 76 / 88 40% 1 30.08.2027 -
Biel La Equidad Actif 122 / 125 40% 1 30.08.2027 -
Godwin Oham Warri Wolves Perdu 95 / 85 40% 1 30.08.2027 -
Maxwell Azafokpe Inter Allies Actif 85 / 80 40% 2 10.08.2027 -
Olaniyi Saheed Kwara United Actif 95 / 95 40% 1 10.08.2027 -
Chibueze Oputa Rangers International Actif 80 / 91 40% 1 10.08.2027 -
Angelo Gattermayer Randers Actif 120 / 122 66% 1 28.06.2027 Approuver
Gladson Sulemana Liberty Professionals Actif 84 / 104 40% 2 01.06.2027 -
Jofre Torrents Ajax Actif 129 / 122 40% 2 01.06.2027 -
John Okoye Ebuka Hammarby Actif 118 / 118 67% 1 01.06.2027 Approuver
Ştefan Baiaram Universitatea Craiova Négociation 120 / 124 66% 1 01.06.2027 -
Tyrese Campbell Sheffield United Actif 124 / 125 40% 3 29.05.2027 -
Rumarn Burrell Queens Park Rangers Actif 127 / 127 40% 8 29.05.2027 -
Mathias Jørgensen Blackburn Rovers Actif 122 / 116 40% 4 29.05.2027 -
Sascha Britschgi Catanzaro Actif 121 / 131 40% 2 29.05.2027 -
Lucas Jetten Cambuur Actif 107 / 118 40% 3 29.05.2027 -
Hamad Šaćirović Novi Pazar Actif 77 / 100 40% 1 26.05.2027 -
Rhys Chadwick Gillingham Actif 93 / 102 40% 1 26.05.2027 -
Joe Gelhardt Hull City Actif 137 / 134 40% 1 26.05.2027 -
Samuel Edozie Southampton Actif 135 / 120 40% 1 26.05.2027 -
Lamine Cissé Peterborough United Actif 119 / 123 40% 6 25.05.2027 -
Cian Ashford Cardiff City Actif 121 / 119 40% 8 25.05.2027 -
Christos Mouzakitis Hull City Actif 129 / 140 40% 4 24.05.2027 -
Jonathan De Irastorza Levante Actif 118 / 131 40% 3 24.05.2027 -
Maeson King Blackpool Actif 103 / 116 40% 2 23.05.2027 -
Leonardo Mendicino Bari Actif 119 / 117 40% 1 23.05.2027 -
Jovon Makama Norwich City Actif 128 / 132 40% 5 22.05.2027 -
Andre Brooks Sheffield United Actif 125 / 126 40% 4 22.05.2027 -
Myles Peart-Harris Oxford United Actif 116 / 114 40% 3 21.05.2027 -
Giorgi Chakvetadze Watford Actif 132 / 131 40% 5 19.05.2027 -
Daniel Kyerewaa Reading Actif 118 / 120 40% 2 19.05.2027 -
Relebohile Mofokeng Orlando Pirates Actif 130 / 135 40% 9 18.05.2027 -
Abu Kamara Portsmouth Actif 112 / 125 40% 2 18.05.2027 -
Koki Saito Queens Park Rangers Actif 125 / 131 40% 1 18.05.2027 -
Dale Taylor Blackpool Actif 110 / 110 40% 3 17.05.2027 -
Paddy Lane Reading Actif 112 / 111 40% 3 17.05.2027 -
Aleksa Terzić Frosinone Actif 127 / 129 40% 9 16.05.2027 -
Zeidane Inoussa Swansea City Actif 123 / 128 40% 6 16.05.2027 -
Ali Ahmed Norwich City Actif 127 / 128 40% 2 16.05.2027 -
Jeon Jin-Woo Sheffield Wednesday Actif 127 / 123 40% 3 14.05.2027 -
Max Johnston Derby County Actif 125 / 123 40% 1 14.05.2027 -
Aidomo Emakhu Oxford United Actif 122 / 124 40% 2 12.05.2027 -
Mihailo Ivanović Millwall Actif 125 / 123 40% 4 12.05.2027 -
Giorgi Kvernadze Frosinone Actif 127 / 120 40% 3 11.05.2027 -
Finn Azaz Southampton Actif 131 / 127 40% 2 11.05.2027 -
Isaiah Jones Luton Town Actif 122 / 120 40% 5 10.05.2027 -
Ramón Terrats Getafe Actif 147 / 147 40% 2 09.05.2027 -
Jack McGlynn Stoke City Actif 136 / 137 40% 1 09.05.2027 -
Max Bird Birmingham Actif 137 / 138 40% 1 08.05.2027 -
Petar Stanić Ludogorets Actif 139 / 137 40% 17 07.05.2027 -
Max Conway Bolton Wanderers Actif 125 / 119 40% 2 07.05.2027 -
Kwame Poku Queens Park Rangers Actif 130 / 129 40% 1 07.05.2027 -
Isaac Price West Bromwich Albion Actif 132 / 134 40% 5 06.05.2027 -
Tommaso Cecotti Carpi Actif 90 / 102 40% 1 05.05.2027 -
Dylan Levitt Leyton Orient Actif 110 / 107 40% 1 05.05.2027 -
Tiago Freitas Benfica Actif 105 / 111 40% 2 03.05.2027 -
Veljko Mirosavić Novi Pazar Actif 101 / 104 40% 2 01.05.2027 -
Edmund Inusah WAFA Actif 70 / 83 40% 2 01.05.2027 -
Daniel Kelly Derby County Actif 116 / 113 40% 1 01.05.2027 -
Tshepang Moremi Orlando Pirates Actif 107 / 107 40% 10 28.04.2027 -
Louie Barry Sheffield Wednesday Actif 119 / 125 40% 3 27.04.2027 -
Sam Curtis Swindon Town Actif 102 / 112 40% 1 26.04.2027 -
Riccardo De Zen Renate Actif 101 / 107 40% 1 26.04.2027 -
Oliver Skipp Leicester City Actif 138 / 127 40% 4 23.04.2027 -
Fraser Murray Wigan Athletic Actif 111 / 111 40% 3 22.04.2027 -
Paris Maghoma Norwich City Actif 125 / 121 40% 2 22.04.2027 -
Chem Campbell Stevenage Actif 119 / 116 40% 1 20.04.2027 -
Riquelme Thompson-Jones Shrewsbury Town Actif 100 / 108 40% 1 19.04.2027 -
Luka Ilić Partizan Actif 113 / 125 40% 7 18.04.2027 -
Melker Widell Swansea City Actif 122 / 118 40% 1 18.04.2027 -
Caleb Yirenkyi Coventry City Actif 138 / 138 40% 3 17.04.2027 -
Helinho Toluca Actif 123 / 125 40% 2 15.04.2027 -
Bobby Clark Derby County Actif 124 / 125 40% 1 15.04.2027 -
Macaulley Kuma Heart of Lions Actif 71 / 81 40% 1 14.04.2027 -
Harry Clarke Preston Actif 127 / 134 40% 3 12.04.2027 -
Tomáš Rigo Stoke City Actif 130 / 126 40% 2 12.04.2027 -
Othmane Maamma Watford Actif 120 / 128 40% 1 11.04.2027 -
Christian Saydee Wigan Athletic Actif 117 / 118 40% 2 10.04.2027 -
Mduduzi Shabalala Kaizer Chiefs Actif 103 / 118 40% 11 09.04.2027 -
Jason Knight Bristol City Actif 133 / 123 40% 3 09.04.2027 -
Camilo Durán Bloemfontein Celtic Actif 124 / 120 40% 2 06.04.2027 -
Ollie Tanner Cardiff City Actif 109 / 109 40% 3 06.04.2027 -
Mirko Topić Norwich City Actif 122 / 120 40% 2 03.04.2027 -
Alex Robertson Cardiff City Actif 122 / 121 40% 2 03.04.2027 -
Tyler Goodrham Oxford United Actif 125 / 128 40% 2 31.03.2027 -
Lindon Emërllahu Polissia Actif 118 / 127 40% 6 29.03.2027 -
Tariq Lamptey Queens Park Rangers Actif 136 / 133 40% 1 25.03.2027 -
David Ankeye Zeleznicar Pancevo Actif 111 / 115 40% 5 22.03.2027 -
Luka Bijelović Novi Pazar Actif 112 / 112 40% 4 20.03.2027 -
Richard Koné Queens Park Rangers Actif 122 / 117 40% 1 19.03.2027 -
Milan Vukotić Partizan Actif 116 / 127 40% 2 10.03.2027 -
Đorđe Jovanović Radnik Surdulica Actif 107 / 101 40% 2 08.03.2027 -
Bosun Lawal Stoke City Actif 130 / 130 40% 1 08.03.2027 -
Tommy Conway Middlesbrough Actif 132 / 126 40% 2 07.03.2027 -
Prestige Mboungou TSC Actif 119 / 107 40% 3 06.03.2027 -
Demba Seck Partizan Actif 126 / 110 40% 7 03.03.2027 -
Victor Ehibe Gazelle Garoua Actif 91 / 95 40% 1 03.03.2027 -
Thomas Atiemo Wa All Stars Actif 86 / 83 40% 2 02.03.2027 -
Gonçalo Oliveira Benfica Actif 109 / 119 40% 1 02.03.2027 -
Abraham Paintsil Hasaacas Actif 92 / 89 40% 1 01.03.2027 -
Martim Cunha Porto Actif 106 / 113 40% 1 01.03.2027 -
Stefan Tomović Spartak Subotica Actif 105 / 108 40% 1 24.02.2027 -
Peter Federico Gornik Zabrze Actif 132 / 124 40% 2 20.02.2027 -
Kasey McAteer Ipswich Town Actif 136 / 130 40% 2 18.02.2027 -
Million Manhoef Stoke City Actif 123 / 126 40% 1 17.02.2027 -
Zoltan Bese Haladas Actif 110 / 120 40% 1 13.02.2027 -
Bakary Haïdara Hearts of Oak Actif 101 / 105 40% 1 13.02.2027 -
Scott Twine Bristol City Actif 130 / 127 40% 1 11.02.2027 -
Romano Schmid Frosinone Actif 145 / 141 40% 1 11.02.2027 -
Ronald Swansea City Actif 129 / 130 40% 2 08.02.2027 -
Leandro Martins Benfica Actif 93 / 101 40% 1 07.02.2027 -
Edwin Asamoah Berekum Chelsea Actif 76 / 92 40% 1 18.01.2027 -
Sonny Carey Charlton Athletic Actif 125 / 126 40% 1 29.12.2026 -
Aleksa Janković Sumgayit Actif 123 / 123 40% 4 28.12.2026 -
Suleiman Camara Slovan Bratislava Actif 115 / 123 40% 1 14.12.2026 -
Bojica Nikčević Radnicki 1923 Actif 103 / 102 40% 3 12.12.2026 -
Aljoša Matko Ujpest Actif 121 / 122 40% 2 12.12.2026 -
Reda Khadra Qarabag Actif 135 / 122 40% 3 07.12.2026 -
Claudy M'Buyi Rapid Wien Actif 124 / 109 40% 3 02.12.2026 -
Vinko Rozić Istra 1961 Actif 119 / 120 40% 1 02.12.2026 -
Mladen Devetak HNK Rijeka Actif 113 / 106 40% 4 30.11.2026 -
Nemanja Trifunović Partizan Actif 112 / 124 40% 1 28.11.2026 -
Bogdan Jočić Rubin Actif 118 / 112 40% 1 27.11.2026 -
Martins Júnior Zira Actif 105 / 118 40% 1 23.11.2026 -
Jovan Lukić Philadelphia Union Actif 108 / 106 40% 2 20.11.2026 -
Matthias Seidl Rapid Wien Actif 124 / 131 40% 1 20.11.2026 -
Claudiu Ratiu Astra Actif 141 / 135 40% 2 16.11.2026 -
Rahim Ibrahim Slovan Bratislava Actif 125 / 125 40% 1 16.11.2026 -
Kelvin Yeboah Minnesota United FC Actif 126 / 114 40% 1 15.11.2026 -
Gabriel Pirani San Diego Football Club Actif 124 / 136 40% 4 10.11.2026 -
Dimitrije Kamenović Lokomotiva Zagreb Actif 102 / 115 40% 1 09.11.2026 -
Martín Ojeda Orlando City Actif 126 / 146 40% 4 05.11.2026 -
David Da Costa Portland Timbers Actif 138 / 132 40% 1 02.11.2026 -
Joaquín Pereyra Minnesota United FC Actif 117 / 119 40% 1 27.10.2026 -
Aleksa Đurasović Akron Actif 108 / 114 40% 1 26.10.2026 -
Qëndrim Zyba Slovan Liberec Actif 106 / 109 40% 1 24.10.2026 -
George Earthy Reading Actif 113 / 126 40% 2 23.10.2026 -
Juan Bezerra Zamalek Actif 116 / 117 40% 1 23.10.2026 -
Elias Achouri San Diego Football Club Actif 144 / 123 40% 2 22.10.2026 -
Santiago Rodríguez Columbus Crew Actif 139 / 118 40% 1 21.10.2026 -
André Luiz Sporting Kansas City Actif 129 / 139 40% 1 21.10.2026 -
David Miculescu FCSB Actif 125 / 119 40% 2 19.10.2026 Plus d'infos
Telasco Segovia Inter Miami CF Actif 125 / 143 40% 1 14.10.2026 -
Paxten Aaronson Colorado Rapids Actif 135 / 125 40% 1 14.10.2026 -
Ammar Ramadan DAC Dunajska Streda Actif 119 / 117 40% 1 13.10.2026 -
Alhassan Yusuf New England Revolution Actif 127 / 131 40% 1 12.10.2026 -
Bénie Traoré New York City Actif 127 / 137 40% 1 11.10.2026 -
Alexander Aravena Portland Timbers Actif 117 / 130 40% 1 09.10.2026 -
Luca Langoni New England Revolution Actif 134 / 122 40% 1 05.10.2026 -
Maurice Malone Minnesota United FC Actif 122 / 112 40% 1 05.10.2026 -
Dušan Pantelić Javor-Matis Actif 114 / 108 69% 1 24.08.2026 Approuver
Dwight McNeil Crystal Palace Actif 136 / 143 40% 1 01.08.2026 -
Juan Dinenno Pumas UNAM Actif 115 / 114 40% 1 01.08.2026 -